Time;durP1;ratioP1;P1;durP2;ratioP2;P2;SDS_P1;SDS_P2;PMS_P1;PMS_P2;Temp;Humidity;BMP_temperature;BMP_pressure;BME280_temperature;BME280_humidity;BME280_pressure;Samples;Min_cycle;Max_cycle;Signal;HPM_P1;HPM_P2
2022/01/29 00:00:38;;;;;;;28.23;20.17;;;6.00;1.00;;;;;;4951031;28;20870;-63
2022/01/29 00:03:05;;;;;;;31.93;19.67;;;6.00;1.00;;;;;;4948239;28;20685;-64
2022/01/29 00:05:32;;;;;;;32.60;18.23;;;6.00;1.00;;;;;;4943911;28;20230;-64
2022/01/29 00:07:58;;;;;;;33.03;19.37;;;6.00;1.00;;;;;;4937246;28;20322;-64
2022/01/29 00:10:26;;;;;;;35.33;19.20;;;6.00;1.00;;;;;;4934543;28;20211;-64
2022/01/29 00:12:53;;;;;;;32.17;19.93;;;6.00;1.00;;;;;;4937292;28;20690;-64
2022/01/29 00:15:20;;;;;;;34.50;19.03;;;6.00;1.00;;;;;;4928010;28;20207;-64
2022/01/29 00:17:49;;;;;;;26.03;17.07;;;6.00;1.00;;;;;;4912312;28;20227;-63
2022/01/29 00:20:16;;;;;;;32.57;17.93;;;6.00;1.00;;;;;;4916480;28;20265;-62
2022/01/29 00:22:47;;;;;;;26.73;18.20;;;6.00;1.00;;;;;;4947579;28;20701;-62
2022/01/29 00:25:13;;;;;;;32.93;17.60;;;6.00;1.00;;;;;;4931753;28;20519;-61
2022/01/29 00:27:40;;;;;;;23.90;16.27;;;6.00;1.00;;;;;;4929200;28;20242;-62
2022/01/29 00:30:13;;;;;;;28.03;17.07;;;6.00;1.00;;;;;;4947241;28;20207;-63
2022/01/29 00:32:40;;;;;;;24.77;16.23;;;6.10;1.00;;;;;;4933111;28;20253;-62
2022/01/29 00:35:07;;;;;;;29.17;15.47;;;6.00;1.00;;;;;;4938599;28;20235;-63
2022/01/29 00:37:37;;;;;;;26.83;17.00;;;6.00;1.00;;;;;;5012832;28;20203;-62
2022/01/29 00:40:05;;;;;;;25.67;16.00;;;6.00;1.00;;;;;;4945633;28;20230;-62
2022/01/29 00:42:32;;;;;;;24.03;15.87;;;6.10;1.00;;;;;;4953872;28;20722;-62
2022/01/29 00:44:59;;;;;;;25.20;15.17;;;6.10;1.00;;;;;;4945595;28;20651;-63
2022/01/29 00:47:26;;;;;;;26.97;16.47;;;6.10;1.00;;;;;;4919184;28;20195;-62
2022/01/29 00:49:53;;;;;;;20.90;14.27;;;6.10;1.00;;;;;;4918769;28;20288;-62
2022/01/29 00:52:20;;;;;;;27.80;16.33;;;6.10;1.00;;;;;;4959601;28;20199;-63
2022/01/29 00:54:47;;;;;;;19.63;14.03;;;6.10;1.00;;;;;;4924818;28;20195;-63
2022/01/29 00:57:14;;;;;;;22.30;14.47;;;6.10;1.00;;;;;;4939477;28;20284;-63
2022/01/29 00:59:46;;;;;;;27.13;14.00;;;6.10;1.00;;;;;;4914157;28;20214;-63
2022/01/29 01:02:13;;;;;;;30.17;15.17;;;6.10;1.00;;;;;;4936388;28;20294;-63
2022/01/29 01:04:40;;;;;;;26.80;14.50;;;6.10;1.00;;;;;;4921710;28;20191;-63
2022/01/29 01:07:09;;;;;;;28.77;15.10;;;6.10;1.00;;;;;;4924888;28;20234;-64
2022/01/29 01:09:37;;;;;;;20.37;14.93;;;6.10;1.00;;;;;;4925990;28;20379;-63
2022/01/29 01:12:05;;;;;;;26.20;16.17;;;6.10;1.00;;;;;;4928613;28;20211;-62
2022/01/29 01:14:35;;;;;;;22.70;15.27;;;6.10;1.00;;;;;;4943503;28;20293;-64
2022/01/29 01:17:03;;;;;;;27.23;15.93;;;6.10;1.00;;;;;;4935972;28;20221;-64
2022/01/29 01:19:30;;;;;;;28.57;16.73;;;6.10;1.00;;;;;;4915078;28;20219;-62
2022/01/29 01:21:57;;;;;;;29.83;16.27;;;6.10;1.00;;;;;;4923617;28;20207;-63
2022/01/29 01:24:24;;;;;;;29.20;16.87;;;6.10;1.00;;;;;;4937390;28;20219;-64
2022/01/29 01:26:52;;;;;;;28.70;18.17;;;6.10;1.00;;;;;;4928182;28;20230;-64
2022/01/29 01:29:19;;;;;;;28.67;18.60;;;6.10;1.00;;;;;;4929080;28;20222;-64
2022/01/29 01:31:46;;;;;;;35.03;17.97;;;6.10;1.00;;;;;;4920574;28;20230;-64
2022/01/29 01:34:15;;;;;;;33.10;18.33;;;6.20;1.00;;;;;;4922085;28;20222;-64
2022/01/29 01:36:49;;;;;;;28.83;17.93;;;6.10;1.00;;;;;;4908967;28;20265;-64
2022/01/29 01:39:20;;;;;;;28.03;17.00;;;6.10;1.00;;;;;;4931049;28;20225;-64
2022/01/29 01:41:57;;;;;;;33.63;18.60;;;6.10;1.00;;;;;;4930389;28;20294;-64
2022/01/29 01:44:24;;;;;;;32.90;18.00;;;6.10;1.00;;;;;;4943305;28;20218;-63
2022/01/29 01:46:51;;;;;;;34.27;20.73;;;6.10;1.00;;;;;;4945755;28;20218;-64
2022/01/29 01:49:20;;;;;;;32.97;19.20;;;6.00;1.00;;;;;;4938262;28;20275;-64
2022/01/29 01:51:50;;;;;;;33.33;19.93;;;6.10;1.00;;;;;;4922883;28;20200;-64
2022/01/29 01:54:21;;;;;;;36.50;19.47;;;6.10;1.00;;;;;;4912841;28;20682;-65
2022/01/29 01:56:51;;;;;;;37.27;20.47;;;6.10;1.00;;;;;;4939134;28;20253;-64
2022/01/29 01:59:18;;;;;;;36.03;20.37;;;6.10;1.00;;;;;;4921159;28;20338;-63
2022/01/29 02:01:48;;;;;;;32.90;19.77;;;6.10;1.00;;;;;;4922327;28;20195;-62
2022/01/29 02:04:15;;;;;;;36.40;21.50;;;6.10;1.00;;;;;;4922306;28;20203;-62
2022/01/29 02:06:45;;;;;;;36.33;18.83;;;6.10;1.00;;;;;;4945588;28;20199;-63
2022/01/29 02:09:15;;;;;;;33.47;20.33;;;6.20;1.00;;;;;;4929664;28;20270;-63
2022/01/29 02:11:53;;;;;;;36.37;20.73;;;6.10;1.00;;;;;;4940789;28;20210;-63
2022/01/29 02:14:24;;;;;;;38.43;21.30;;;6.10;1.00;;;;;;4939202;28;20202;-63
2022/01/29 02:16:51;;;;;;;38.27;20.17;;;6.20;1.00;;;;;;4938456;28;20249;-64
2022/01/29 02:19:18;;;;;;;36.13;20.87;;;6.20;1.00;;;;;;4920588;28;20222;-64
2022/01/29 02:21:45;;;;;;;36.67;20.90;;;6.10;1.00;;;;;;4941344;28;20278;-64
2022/01/29 02:24:15;;;;;;;30.83;19.13;;;6.20;1.00;;;;;;4926870;28;20686;-63
2022/01/29 02:26:42;;;;;;;31.93;19.23;;;6.20;1.00;;;;;;4985604;28;20296;-64
2022/01/29 02:29:13;;;;;;;32.30;18.47;;;6.20;1.00;;;;;;4922398;28;20214;-64
2022/01/29 02:31:48;;;;;;;31.97;18.70;;;6.20;1.00;;;;;;5003696;28;20222;-64
2022/01/29 02:34:18;;;;;;;34.43;19.57;;;6.20;1.00;;;;;;4946902;28;20203;-63
2022/01/29 02:36:46;;;;;;;32.27;20.43;;;6.20;1.00;;;;;;4920690;28;20245;-64
2022/01/29 02:39:16;;;;;;;42.47;21.00;;;6.30;1.00;;;;;;4948430;28;20662;-63
2022/01/29 02:41:44;;;;;;;31.33;19.73;;;6.20;1.00;;;;;;5008251;28;23358;-64
2022/01/29 02:44:19;;;;;;;38.67;20.20;;;6.20;1.00;;;;;;4944667;28;20306;-64
2022/01/29 02:49:15;;;;;;;35.03;21.10;;;6.20;1.00;;;;;;4941494;28;20203;-64
2022/01/29 02:51:55;;;;;;;38.43;21.37;;;6.20;1.00;;;;;;4913697;28;20218;-64
2022/01/29 02:54:25;;;;;;;35.63;21.40;;;6.20;1.00;;;;;;4946315;28;20203;-62
2022/01/29 02:56:55;;;;;;;38.90;21.90;;;6.20;6.70;;;;;;4920802;28;20280;-63
2022/01/29 02:59:22;;;;;;;35.77;20.10;;;6.20;23.90;;;;;;4945256;28;20356;-64
2022/01/29 03:01:52;;;;;;;33.67;19.97;;;6.20;29.20;;;;;;4927742;28;20226;-64
2022/01/29 03:04:18;;;;;;;31.17;18.57;;;6.20;62.70;;;;;;4943274;28;20205;-64
2022/01/29 03:06:45;;;;;;;38.70;20.60;;;6.20;98.40;;;;;;4928535;28;20241;-64
2022/01/29 03:09:12;;;;;;;32.10;19.27;;;6.20;99.90;;;;;;4944546;28;20250;-64
2022/01/29 03:11:40;;;;;;;37.87;20.67;;;6.20;99.90;;;;;;4946370;28;20602;-65
2022/01/29 03:14:06;;;;;;;36.93;20.13;;;6.20;99.90;;;;;;4909953;28;20210;-64
2022/01/29 03:16:33;;;;;;;37.90;21.57;;;6.10;99.90;;;;;;4927840;28;20211;-64
2022/01/29 03:19:00;;;;;;;37.00;20.90;;;6.10;99.90;;;;;;4913878;28;20247;-64
2022/01/29 03:21:27;;;;;;;38.07;22.07;;;6.10;1.00;;;;;;4964428;28;20657;-64
2022/01/29 03:23:56;;;;;;;36.80;19.67;;;6.10;1.00;;;;;;4942338;28;20238;-62
2022/01/29 03:26:23;;;;;;;38.10;22.23;;;6.10;1.00;;;;;;4945712;28;20200;-63
2022/01/29 03:28:53;;;;;;;38.97;22.07;;;6.10;1.00;;;;;;4925602;28;20203;-64
2022/01/29 03:31:26;;;;;;;39.30;23.17;;;6.10;1.00;;;;;;4927750;28;20210;-63
2022/01/29 03:33:57;;;;;;;43.90;22.67;;;6.10;1.00;;;;;;4940845;28;20234;-64
2022/01/29 03:36:24;;;;;;;34.20;21.80;;;6.10;1.00;;;;;;4931473;28;20365;-63
2022/01/29 03:38:53;;;;;;;39.83;22.77;;;6.10;1.00;;;;;;4927158;28;20771;-63
2022/01/29 03:41:20;;;;;;;38.40;23.23;;;6.10;1.00;;;;;;4929030;28;20235;-63
2022/01/29 03:43:52;;;;;;;34.10;22.60;;;6.10;1.00;;;;;;4929417;28;20206;-64
2022/01/29 03:46:20;;;;;;;41.40;21.90;;;6.00;1.00;;;;;;4923276;28;20298;-64
2022/01/29 03:48:47;;;;;;;33.37;20.70;;;6.10;1.00;;;;;;4923377;28;20238;-64
2022/01/29 03:51:14;;;;;;;41.93;22.33;;;6.10;1.00;;;;;;4924122;28;20314;-64
2022/01/29 03:53:41;;;;;;;37.97;21.23;;;6.20;1.00;;;;;;4926250;28;20195;-63
2022/01/29 03:56:11;;;;;;;37.77;22.80;;;6.10;1.00;;;;;;4943639;28;20290;-63
2022/01/29 03:58:44;;;;;;;37.70;20.60;;;6.10;1.00;;;;;;4911714;28;20230;-64
2022/01/29 04:01:13;;;;;;;36.57;20.53;;;6.10;1.00;;;;;;4934348;28;20654;-63
2022/01/29 04:03:42;;;;;;;35.70;21.30;;;6.20;1.00;;;;;;4925188;28;20507;-63
2022/01/29 04:06:09;;;;;;;31.40;20.13;;;6.20;1.00;;;;;;4945327;28;20216;-64
2022/01/29 04:08:41;;;;;;;33.17;20.33;;;6.20;1.00;;;;;;4933522;28;20338;-64
2022/01/29 04:11:12;;;;;;;33.17;20.80;;;6.20;1.00;;;;;;4921879;28;20222;-63
2022/01/29 04:13:46;;;;;;;41.60;22.37;;;6.20;1.00;;;;;;4914831;28;20265;-62
2022/01/29 04:16:18;;;;;;;32.70;19.27;;;6.20;1.00;;;;;;4941721;28;20222;-64
2022/01/29 04:18:45;;;;;;;37.43;23.07;;;6.20;1.00;;;;;;5007626;28;20210;-64
2022/01/29 04:21:13;;;;;;;35.03;20.90;;;6.10;1.00;;;;;;4945439;28;20315;-63
2022/01/29 04:23:39;;;;;;;34.20;20.33;;;6.20;1.00;;;;;;4943009;28;20612;-64
2022/01/29 04:26:07;;;;;;;38.47;21.83;;;6.10;1.00;;;;;;4942607;28;20638;-64
2022/01/29 04:28:39;;;;;;;40.00;23.27;;;6.10;11.30;;;;;;4950305;28;20301;-63
2022/01/29 04:31:15;;;;;;;38.77;22.60;;;6.10;91.90;;;;;;4913837;28;20245;-63
2022/01/29 04:33:42;;;;;;;36.00;20.73;;;6.10;99.90;;;;;;4941617;28;20211;-64
2022/01/29 04:36:10;;;;;;;35.97;20.10;;;6.10;99.90;;;;;;4927320;28;20314;-64
2022/01/29 04:38:39;;;;;;;35.63;23.10;;;6.10;99.90;;;;;;4919511;28;20257;-64
2022/01/29 04:41:06;;;;;;;40.70;22.20;;;6.10;1.00;;;;;;4936218;28;20739;-62
2022/01/29 04:43:36;;;;;;;39.30;22.03;;;6.00;1.00;;;;;;4949913;28;20230;-64
2022/01/29 04:46:07;;;;;;;42.27;22.23;;;6.00;1.00;;;;;;4944090;28;20218;-64
2022/01/29 04:48:34;;;;;;;36.30;21.90;;;6.00;1.00;;;;;;4944027;28;20550;-62
2022/01/29 04:51:04;;;;;;;41.00;22.83;;;6.10;1.00;;;;;;4940205;28;20272;-62
2022/01/29 04:53:31;;;;;;;37.53;22.23;;;6.00;15.80;;;;;;4928927;28;22803;-63
2022/01/29 04:56:04;;;;;;;37.23;22.03;;;6.00;99.90;;;;;;4926953;28;20539;-61
2022/01/29 04:58:31;;;;;;;39.77;21.37;;;6.00;99.90;;;;;;4923206;28;20490;-64
2022/01/29 05:01:04;;;;;;;36.07;23.03;;;6.00;99.90;;;;;;4942197;28;20350;-63
2022/01/29 05:03:34;;;;;;;38.67;22.57;;;6.00;99.90;;;;;;4930074;28;20199;-63
2022/01/29 05:06:01;;;;;;;36.37;20.77;;;6.00;99.90;;;;;;4924118;28;20198;-64
2022/01/29 05:08:32;;;;;;;36.30;21.13;;;6.10;99.90;;;;;;4923319;28;20242;-64
2022/01/29 05:10:59;;;;;;;35.50;23.63;;;6.10;1.00;;;;;;4927264;28;20747;-62
2022/01/29 05:13:29;;;;;;;39.60;22.70;;;6.00;1.00;;;;;;4910245;28;20601;-63
2022/01/29 05:27:02;;;;;;;32.00;21.13;;;6.10;1.00;;;;;;4941987;28;20278;-63
2022/01/29 05:29:32;;;;;;;29.33;19.70;;;6.10;1.00;;;;;;4931102;28;20217;-63
2022/01/29 05:32:04;;;;;;;36.93;21.53;;;6.10;1.00;;;;;;4932142;28;20261;-64
2022/01/29 05:34:32;;;;;;;32.63;20.17;;;6.10;1.00;;;;;;4925050;28;20686;-63
2022/01/29 05:37:00;;;;;;;30.93;19.70;;;6.10;1.00;;;;;;4929549;28;20203;-64
2022/01/29 05:39:28;;;;;;;31.53;17.83;;;6.10;1.00;;;;;;4944412;28;20214;-64
2022/01/29 05:41:55;;;;;;;32.80;19.43;;;6.10;1.00;;;;;;4925117;28;20195;-63
2022/01/29 05:44:22;;;;;;;30.53;17.17;;;6.20;1.00;;;;;;4932728;28;20203;-63
2022/01/29 05:46:49;;;;;;;30.43;19.07;;;6.20;1.00;;;;;;4931833;28;20555;-63
2022/01/29 05:49:16;;;;;;;28.33;18.87;;;6.20;1.00;;;;;;4914679;28;20213;-63
2022/01/29 05:51:43;;;;;;;32.43;21.00;;;6.20;1.00;;;;;;4939421;28;20309;-62
2022/01/29 05:54:10;;;;;;;27.63;17.30;;;6.20;1.00;;;;;;4929585;28;20268;-63
2022/01/29 05:56:37;;;;;;;28.83;17.53;;;6.20;1.00;;;;;;4927574;28;20211;-64
2022/01/29 05:59:04;;;;;;;25.00;16.93;;;6.20;1.00;;;;;;4931391;28;20294;-62
2022/01/29 06:01:31;;;;;;;28.33;18.03;;;6.20;1.00;;;;;;4928354;28;20211;-62
2022/01/29 06:03:58;;;;;;;27.43;17.10;;;6.30;1.00;;;;;;4938077;28;20199;-63
2022/01/29 06:06:25;;;;;;;27.20;16.77;;;6.30;1.00;;;;;;4923594;28;20497;-63
2022/01/29 06:09:01;;;;;;;27.57;17.37;;;6.30;99.90;;;;;;4944930;28;20253;-62
2022/01/29 06:11:30;;;;;;;26.10;17.30;;;6.30;99.90;;;;;;4934477;28;20221;-64
2022/01/29 06:14:00;;;;;;;26.17;17.40;;;6.30;99.90;;;;;;4946035;28;20222;-63
2022/01/29 06:16:30;;;;;;;23.17;16.80;;;6.30;99.90;;;;;;4935065;28;20670;-63
2022/01/29 06:18:59;;;;;;;21.83;15.63;;;6.40;99.90;;;;;;4943898;28;20741;-64
2022/01/29 06:21:26;;;;;;;23.80;17.30;;;6.30;36.80;;;;;;4925229;28;20199;-62
2022/01/29 06:23:57;;;;;;;21.40;15.77;;;6.40;1.00;;;;;;5011587;28;20231;-62
2022/01/29 06:26:25;;;;;;;23.73;16.17;;;6.40;1.00;;;;;;4933855;28;20199;-63
2022/01/29 06:28:52;;;;;;;23.83;16.40;;;6.40;1.00;;;;;;4945343;28;20195;-64
2022/01/29 06:31:22;;;;;;;24.67;15.63;;;6.50;1.00;;;;;;4930552;28;20195;-63
2022/01/29 06:33:52;;;;;;;24.77;17.37;;;6.50;1.00;;;;;;4927268;28;20211;-63
2022/01/29 06:36:21;;;;;;;24.20;16.93;;;6.50;1.00;;;;;;4946098;28;20239;-64
2022/01/29 06:38:49;;;;;;;27.90;17.43;;;6.50;1.00;;;;;;4931816;28;20207;-65
2022/01/29 06:41:16;;;;;;;26.50;17.10;;;6.50;1.00;;;;;;4924981;28;20318;-63
2022/01/29 06:43:43;;;;;;;26.43;18.07;;;6.50;1.00;;;;;;4908119;29;20203;-64
2022/01/29 06:46:10;;;;;;;29.70;19.53;;;6.60;1.00;;;;;;4916075;28;20713;-63
2022/01/29 06:48:40;;;;;;;27.43;18.03;;;6.50;1.00;;;;;;4926820;28;20234;-64
2022/01/29 06:51:07;;;;;;;29.00;18.97;;;6.60;1.00;;;;;;4936666;28;20282;-62
2022/01/29 06:53:34;;;;;;;30.27;18.00;;;6.60;1.00;;;;;;4920995;28;20297;-62
2022/01/29 06:56:01;;;;;;;28.40;19.00;;;6.60;1.00;;;;;;4930302;28;20680;-63
2022/01/29 06:58:30;;;;;;;32.10;18.90;;;6.60;1.00;;;;;;4928572;28;20269;-62
2022/01/29 07:01:17;;;;;;;29.23;19.40;;;6.60;1.00;;;;;;4929776;28;20568;-62
2022/01/29 07:03:44;;;;;;;28.97;19.27;;;6.60;1.00;;;;;;4928714;28;20689;-63
2022/01/29 07:06:13;;;;;;;29.00;19.47;;;6.70;1.00;;;;;;4951676;28;20210;-63
2022/01/29 07:08:40;;;;;;;30.10;18.83;;;6.70;1.00;;;;;;4917838;28;20260;-63
2022/01/29 07:11:07;;;;;;;35.33;20.27;;;6.80;1.00;;;;;;4933292;28;20305;-63
2022/01/29 07:13:38;;;;;;;30.47;20.57;;;6.70;1.00;;;;;;4932191;28;20250;-62
2022/01/29 07:16:10;;;;;;;33.30;19.53;;;6.80;1.00;;;;;;4957017;28;20286;-64
2022/01/29 07:18:39;;;;;;;34.80;20.93;;;6.80;1.00;;;;;;4946082;28;20206;-62
2022/01/29 07:21:06;;;;;;;31.77;19.67;;;6.80;1.00;;;;;;5005653;28;20318;-63
2022/01/29 07:23:34;;;;;;;29.43;20.53;;;6.80;1.00;;;;;;4992946;28;20210;-63
2022/01/29 07:26:03;;;;;;;32.23;20.67;;;6.80;1.00;;;;;;4944968;28;20685;-63
2022/01/29 07:28:35;;;;;;;30.20;20.00;;;6.80;1.00;;;;;;4914610;28;21194;-63
2022/01/29 07:31:02;;;;;;;32.40;21.80;;;6.80;1.00;;;;;;4932098;28;20298;-62
2022/01/29 07:33:29;;;;;;;29.07;18.23;;;6.90;1.00;;;;;;4921139;28;20426;-63
2022/01/29 07:36:01;;;;;;;27.03;18.23;;;6.90;1.00;;;;;;4934923;28;20196;-64
2022/01/29 07:38:28;;;;;;;31.07;20.77;;;6.90;1.00;;;;;;4953973;28;20289;-63
2022/01/29 07:41:00;;;;;;;31.03;20.47;;;6.90;1.00;;;;;;4934423;28;20745;-63
2022/01/29 07:43:27;;;;;;;32.83;21.93;;;6.90;1.00;;;;;;4950870;28;20223;-63
2022/01/29 07:45:54;;;;;;;30.50;21.10;;;6.90;1.00;;;;;;4950752;28;20203;-63
2022/01/29 07:48:21;;;;;;;32.27;20.87;;;6.90;1.00;;;;;;4919581;28;20297;-63
2022/01/29 07:50:50;;;;;;;33.47;20.93;;;6.90;1.00;;;;;;4933153;28;20294;-63
2022/01/29 07:53:17;;;;;;;35.90;20.77;;;6.90;1.00;;;;;;4933430;28;20210;-63
2022/01/29 07:55:48;;;;;;;35.60;21.23;;;7.00;1.00;;;;;;4916617;28;20203;-63
2022/01/29 07:58:15;;;;;;;31.20;20.47;;;7.00;1.00;;;;;;4925698;28;20199;-63
2022/01/29 08:00:42;;;;;;;34.17;20.97;;;6.90;1.00;;;;;;4920823;28;20322;-63
2022/01/29 08:03:09;;;;;;;35.23;21.90;;;7.00;1.00;;;;;;4931982;28;20203;-63
2022/01/29 08:05:36;;;;;;;34.63;21.57;;;7.00;1.00;;;;;;4933926;28;20694;-62
2022/01/29 08:08:03;;;;;;;32.53;20.43;;;7.00;1.00;;;;;;4926354;28;20243;-64
2022/01/29 08:10:33;;;;;;;35.57;23.13;;;7.00;1.00;;;;;;4922793;28;20621;-62
2022/01/29 08:13:02;;;;;;;36.17;23.00;;;7.00;1.00;;;;;;4928807;28;21061;-62
2022/01/29 08:15:29;;;;;;;38.87;23.37;;;7.00;22.60;;;;;;4926653;28;20294;-63
2022/01/29 08:17:57;;;;;;;37.33;21.37;;;7.10;56.70;;;;;;4912612;28;20620;-63
2022/01/29 08:20:23;;;;;;;39.50;23.53;;;7.10;65.00;;;;;;4920387;28;20212;-63
2022/01/29 08:22:50;;;;;;;36.80;23.57;;;7.10;65.10;;;;;;4928391;28;20921;-63
2022/01/29 08:25:19;;;;;;;35.60;23.13;;;7.10;65.50;;;;;;4930167;28;20200;-62
2022/01/29 08:27:46;;;;;;;35.27;22.40;;;7.10;63.00;;;;;;4929246;28;20570;-63
2022/01/29 08:30:13;;;;;;;37.07;21.97;;;7.20;58.80;;;;;;4922340;28;20215;-63
2022/01/29 08:32:43;;;;;;;36.03;24.17;;;7.20;75.00;;;;;;4927539;28;20555;-61
2022/01/29 08:35:13;;;;;;;35.53;22.67;;;7.20;99.00;;;;;;4912615;28;20226;-63
2022/01/29 08:37:42;;;;;;;39.37;23.13;;;7.20;99.90;;;;;;4951034;28;20214;-63
2022/01/29 08:40:12;;;;;;;34.23;20.93;;;7.20;99.90;;;;;;4925364;28;20311;-64
2022/01/29 08:42:40;;;;;;;36.30;21.73;;;7.30;99.90;;;;;;4931632;28;20563;-64
2022/01/29 08:45:08;;;;;;;38.70;24.93;;;7.30;99.90;;;;;;4911561;28;20206;-64
2022/01/29 08:47:40;;;;;;;51.80;30.27;;;7.30;99.90;;;;;;4942302;28;20200;-62
2022/01/29 08:50:09;;;;;;;41.87;25.33;;;7.30;99.90;;;;;;4914035;28;20199;-62
2022/01/29 08:52:37;;;;;;;37.67;22.53;;;7.30;99.90;;;;;;4947874;28;20192;-63
2022/01/29 08:55:11;;;;;;;40.73;25.07;;;7.40;99.90;;;;;;4943779;28;20204;-63
2022/01/29 08:57:41;;;;;;;40.33;22.63;;;7.40;99.90;;;;;;4923316;28;20718;-63
2022/01/29 09:00:10;;;;;;;40.10;24.90;;;7.40;99.90;;;;;;5004259;28;20314;-64
2022/01/29 09:02:37;;;;;;;35.00;23.20;;;7.40;99.90;;;;;;4919519;28;20208;-63
2022/01/29 09:05:06;;;;;;;39.90;24.37;;;7.40;99.90;;;;;;4928123;28;20219;-64
2022/01/29 09:07:34;;;;;;;36.30;23.07;;;7.50;99.90;;;;;;4927556;28;21175;-62
2022/01/29 09:10:04;;;;;;;33.43;21.90;;;7.50;74.60;;;;;;4923645;28;20208;-62
2022/01/29 09:12:31;;;;;;;37.93;24.77;;;7.60;1.10;;;;;;4920952;28;20203;-62
2022/01/29 09:15:01;;;;;;;34.50;23.80;;;7.60;1.00;;;;;;4920541;28;20287;-62
2022/01/29 09:17:30;;;;;;;34.50;22.80;;;7.60;1.00;;;;;;4924676;28;20279;-62
2022/01/29 09:19:57;;;;;;;34.97;19.90;;;7.70;1.00;;;;;;4928221;28;20229;-63
2022/01/29 09:22:26;;;;;;;32.93;22.00;;;7.70;1.00;;;;;;4932262;28;20286;-62
2022/01/29 09:24:55;;;;;;;35.03;23.37;;;7.70;1.00;;;;;;4924775;28;20192;-62
2022/01/29 09:27:22;;;;;;;29.03;20.43;;;7.70;1.00;;;;;;4929100;28;20735;-63
2022/01/29 09:29:51;;;;;;;29.90;21.43;;;7.70;1.00;;;;;;4911225;28;20203;-62
2022/01/29 09:32:18;;;;;;;32.50;19.57;;;7.80;1.00;;;;;;4927098;28;20596;-63
2022/01/29 09:34:45;;;;;;;30.13;21.40;;;7.80;1.00;;;;;;4928015;28;20203;-64
2022/01/29 09:37:13;;;;;;;31.47;21.77;;;7.80;1.00;;;;;;4921923;28;20203;-62
2022/01/29 09:39:42;;;;;;;26.60;19.37;;;7.80;1.00;;;;;;4923707;28;20200;-62
2022/01/29 09:42:10;;;;;;;26.77;20.50;;;7.70;1.00;;;;;;4926806;28;20321;-62
2022/01/29 09:44:37;;;;;;;31.07;20.97;;;7.80;99.90;;;;;;4924638;28;20203;-62
2022/01/29 09:47:07;;;;;;;26.80;19.07;;;7.90;99.90;;;;;;4899626;28;20322;-62
2022/01/29 09:49:37;;;;;;;26.80;17.73;;;7.80;86.00;;;;;;4914884;28;20207;-63
2022/01/29 09:52:04;;;;;;;23.30;17.70;;;7.90;92.60;;;;;;4915906;28;20208;-63
2022/01/29 09:54:31;;;;;;;29.57;22.00;;;7.90;99.90;;;;;;4920139;28;20319;-63
2022/01/29 09:56:58;;;;;;;23.87;18.77;;;7.90;99.90;;;;;;4945175;28;20203;-63
2022/01/29 09:59:26;;;;;;;20.07;16.17;;;7.90;99.90;;;;;;4914046;28;20234;-62
2022/01/29 10:01:55;;;;;;;21.83;15.67;;;8.00;99.90;;;;;;4923696;28;20219;-62
2022/01/29 10:04:24;;;;;;;20.73;16.73;;;8.00;99.90;;;;;;4922068;28;21604;-62
2022/01/29 10:07:13;;;;;;;20.73;16.33;;;8.00;64.30;;;;;;4921129;28;20266;-62
2022/01/29 10:09:40;;;;;;;21.50;15.67;;;8.00;9.80;;;;;;4934926;28;20298;-62
2022/01/29 10:12:19;;;;;;;21.37;15.73;;;8.00;1.00;;;;;;4918323;28;20243;-64
2022/01/29 10:15:00;;;;;;;21.00;16.03;;;8.10;1.00;;;;;;4916850;28;20226;-62
2022/01/29 10:17:48;;;;;;;19.10;15.60;;;8.10;57.30;;;;;;4907913;28;20208;-63
2022/01/29 10:20:15;;;;;;;21.67;15.83;;;8.20;1.00;;;;;;4917191;28;20196;-62
2022/01/29 10:22:55;;;;;;;21.13;15.97;;;8.10;1.00;;;;;;4910947;28;20290;-62
2022/01/29 10:25:28;;;;;;;21.13;15.47;;;8.20;1.00;;;;;;4904738;28;20232;-62
2022/01/29 10:28:13;;;;;;;22.73;16.77;;;8.20;1.00;;;;;;4941766;28;20339;-62
2022/01/29 10:30:49;;;;;;;18.87;16.53;;;8.20;1.00;;;;;;4926809;28;20307;-62
2022/01/29 10:33:23;;;;;;;20.60;15.33;;;8.20;1.00;;;;;;4926196;28;20677;-62
2022/01/29 10:35:52;;;;;;;21.23;16.37;;;8.20;1.00;;;;;;4924722;28;20211;-62
2022/01/29 10:38:22;;;;;;;21.90;17.43;;;8.30;1.00;;;;;;4921880;28;20205;-63
2022/01/29 10:41:27;;;;;;;20.77;16.47;;;8.30;1.00;;;;;;4923523;28;20287;-62
2022/01/29 10:46:41;;;;;;;21.87;16.63;;;8.40;1.00;;;;;;4921152;28;20310;-63
2022/01/29 10:49:15;;;;;;;18.87;15.03;;;8.40;1.00;;;;;;4920669;28;20291;-63
2022/01/29 10:52:03;;;;;;;21.53;17.80;;;8.50;99.90;;;;;;4903973;28;20295;-62
2022/01/29 10:54:41;;;;;;;21.97;16.60;;;8.50;99.90;;;;;;4921491;28;20211;-62
2022/01/29 10:57:10;;;;;;;18.43;14.27;;;8.50;99.90;;;;;;4921501;28;20729;-63
2022/01/29 10:59:49;;;;;;;20.57;15.60;;;8.60;99.90;;;;;;4927738;28;20196;-64
2022/01/29 11:02:18;;;;;;;20.30;16.30;;;8.50;99.90;;;;;;4927021;28;20697;-62
2022/01/29 11:04:45;;;;;;;21.40;17.23;;;8.50;99.90;;;;;;4917181;28;20218;-62
2022/01/29 11:07:17;;;;;;;23.30;19.53;;;8.50;1.00;;;;;;4925358;28;20294;-63
2022/01/29 11:09:46;;;;;;;22.63;17.90;;;8.60;1.00;;;;;;4941768;28;20650;-63
2022/01/29 11:12:21;;;;;;;21.13;14.93;;;8.50;99.90;;;;;;4942814;28;20227;-63
2022/01/29 11:14:53;;;;;;;22.60;16.47;;;8.60;99.90;;;;;;4926258;28;20258;-62
2022/01/29 11:17:30;;;;;;;24.07;18.00;;;8.60;1.00;;;;;;4924642;28;20226;-63
2022/01/29 11:19:59;;;;;;;21.87;17.70;;;8.60;1.00;;;;;;4912726;28;20211;-63
2022/01/29 11:22:38;;;;;;;26.17;17.70;;;8.60;1.00;;;;;;4925179;28;20227;-63
2022/01/29 11:25:23;;;;;;;19.97;16.57;;;8.60;1.00;;;;;;4954943;28;20260;-63
2022/01/29 11:28:18;;;;;;;18.23;15.43;;;8.70;1.00;;;;;;4944907;28;20728;-63
2022/01/29 11:30:47;;;;;;;20.77;16.00;;;8.60;1.00;;;;;;4915154;28;20273;-63
2022/01/29 11:33:16;;;;;;;21.30;15.63;;;8.60;29.40;;;;;;4950324;28;20203;-63
2022/01/29 11:35:53;;;;;;;19.43;16.17;;;8.60;99.90;;;;;;4938222;28;20766;-63
2022/01/29 11:38:33;;;;;;;20.70;16.33;;;8.60;81.00;;;;;;4941336;28;20238;-64
2022/01/29 11:41:02;;;;;;;19.53;15.27;;;8.50;99.90;;;;;;4949214;28;20205;-62
2022/01/29 11:43:33;;;;;;;19.67;16.37;;;8.60;83.10;;;;;;4935887;28;20563;-63
2022/01/29 11:46:07;;;;;;;22.37;16.67;;;8.50;32.00;;;;;;4923518;28;20217;-63
2022/01/29 11:48:40;;;;;;;21.23;17.67;;;8.60;1.00;;;;;;5007025;28;20210;-63
2022/01/29 11:51:10;;;;;;;19.53;16.97;;;8.60;1.00;;;;;;4925608;28;20278;-63
2022/01/29 11:53:48;;;;;;;20.10;15.40;;;8.70;1.00;;;;;;4930092;28;20684;-63
2022/01/29 11:56:35;;;;;;;24.20;16.10;;;8.70;1.00;;;;;;4931054;28;20214;-64
2022/01/29 11:59:17;;;;;;;19.83;16.53;;;8.70;1.00;;;;;;4945844;28;20289;-63
2022/01/29 12:01:48;;;;;;;19.70;15.47;;;8.80;1.00;;;;;;4933280;28;20779;-63
2022/01/29 12:04:16;;;;;;;18.33;14.97;;;8.80;1.00;;;;;;4948455;28;20192;-63
2022/01/29 12:07:03;;;;;;;18.57;15.97;;;8.90;99.90;;;;;;4934968;28;20195;-62
2022/01/29 12:09:45;;;;;;;20.20;17.03;;;8.90;99.90;;;;;;4933390;28;20205;-63
2022/01/29 12:12:24;;;;;;;17.93;15.27;;;9.00;99.90;;;;;;4949874;28;20644;-63
2022/01/29 12:14:54;;;;;;;16.93;14.33;;;9.00;99.90;;;;;;4935997;28;20313;-62
2022/01/29 12:17:45;;;;;;;18.03;14.93;;;9.00;99.90;;;;;;4921223;28;20745;-64
2022/01/29 12:20:16;;;;;;;15.17;13.57;;;9.10;8.00;;;;;;4930154;28;20215;-63
2022/01/29 12:22:44;;;;;;;16.13;14.00;;;9.10;1.00;;;;;;4960739;28;20308;-63
2022/01/29 12:25:16;;;;;;;15.73;13.97;;;9.10;1.00;;;;;;4950712;28;20203;-63
2022/01/29 12:27:53;;;;;;;16.50;14.67;;;9.10;1.00;;;;;;4916722;28;20717;-62
2022/01/29 12:30:27;;;;;;;15.80;12.87;;;9.10;1.00;;;;;;4929426;28;20681;-63
2022/01/29 12:32:58;;;;;;;15.80;13.83;;;9.10;1.00;;;;;;4917907;28;20206;-62
2022/01/29 12:35:39;;;;;;;14.73;12.83;;;9.10;1.00;;;;;;4925616;28;20731;-62
2022/01/29 12:38:17;;;;;;;14.10;12.30;;;9.20;1.00;;;;;;4946439;28;20586;-63
2022/01/29 12:41:03;;;;;;;13.43;12.03;;;9.20;1.00;;;;;;4947026;28;20235;-63
2022/01/29 12:43:39;;;;;;;16.57;13.47;;;9.30;1.00;;;;;;4942121;28;20211;-63
2022/01/29 12:46:18;;;;;;;14.43;12.83;;;9.30;1.00;;;;;;4955147;28;20203;-62
2022/01/29 12:48:57;;;;;;;12.30;11.00;;;9.30;1.00;;;;;;4929227;28;20662;-63
2022/01/29 12:51:23;;;;;;;15.30;13.70;;;9.30;1.00;;;;;;4934428;28;20206;-63
2022/01/29 12:53:59;;;;;;;15.70;12.90;;;9.40;1.00;;;;;;4916128;28;20212;-63
2022/01/29 12:56:37;;;;;;;13.67;11.87;;;9.40;1.00;;;;;;4922560;28;20202;-63
2022/01/29 12:59:06;;;;;;;14.67;12.70;;;9.40;1.00;;;;;;4944673;28;20562;-62
2022/01/29 13:01:34;;;;;;;14.53;12.87;;;9.40;1.00;;;;;;4930425;28;21217;-63
2022/01/29 13:04:20;;;;;;;15.77;13.03;;;9.40;99.90;;;;;;4935188;28;20863;-62
2022/01/29 13:06:59;;;;;;;14.87;12.43;;;9.50;99.90;;;;;;4930317;28;20273;-62
2022/01/29 13:09:29;;;;;;;15.63;12.17;;;9.50;99.90;;;;;;4923103;28;20203;-62
2022/01/29 13:12:01;;;;;;;12.73;11.40;;;9.50;99.90;;;;;;5011493;28;20199;-62
2022/01/29 13:14:29;;;;;;;13.43;12.03;;;9.60;99.90;;;;;;4931550;28;20231;-62